createdAt,value
2022-08-08T00:01:08.062Z,4.73
2022-08-08T00:03:48.442Z,4.57
2022-08-08T00:06:34.205Z,5.03
2022-08-08T00:09:07.747Z,4.67
2022-08-08T00:11:46.841Z,4.60
2022-08-08T00:14:48.335Z,4.23
2022-08-08T00:17:35.226Z,4.17
2022-08-08T00:20:31.476Z,4.07
2022-08-08T00:23:06.246Z,4.37
2022-08-08T00:25:46.720Z,4.00
2022-08-08T00:28:35.593Z,3.67
2022-08-08T00:32:20.086Z,3.87
2022-08-08T00:34:35.569Z,4.00
2022-08-08T00:37:45.133Z,5.50
2022-08-08T00:41:11.652Z,4.60
2022-08-08T00:43:40.780Z,4.37
2022-08-08T00:46:26.929Z,5.23
2022-08-08T00:49:33.150Z,5.90
2022-08-08T00:52:19.672Z,4.60
2022-08-08T00:55:10.807Z,4.90
2022-08-08T00:58:33.132Z,4.97
2022-08-08T01:01:15.838Z,4.80
2022-08-08T01:04:33.583Z,4.43
2022-08-08T01:07:55.045Z,4.67
2022-08-08T01:11:02.627Z,4.63
2022-08-08T01:14:02.402Z,4.90
2022-08-08T01:16:46.594Z,4.50
2022-08-08T01:20:02.262Z,3.87
2022-08-08T01:22:50.720Z,4.27
2022-08-08T01:26:11.860Z,4.67
2022-08-08T01:29:23.826Z,4.43
2022-08-08T01:32:29.595Z,4.60
2022-08-08T01:35:31.035Z,4.23
2022-08-08T01:38:32.087Z,4.37
2022-08-08T01:41:11.582Z,4.43
2022-08-08T01:43:53.344Z,4.50
2022-08-08T01:46:40.394Z,3.73
2022-08-08T01:49:22.942Z,3.80
2022-08-08T01:54:03.945Z,4.20
2022-08-08T01:55:26.946Z,4.10
2022-08-08T01:58:38.465Z,4.33
2022-08-08T02:01:17.605Z,4.00
2022-08-08T02:04:01.917Z,3.90
2022-08-08T02:06:47.600Z,3.70
2022-08-08T02:10:02.453Z,4.17
2022-08-08T02:12:24.109Z,4.03
2022-08-08T02:15:00.889Z,4.70
2022-08-08T02:17:36.509Z,4.10
2022-08-08T02:21:00.786Z,3.93
2022-08-08T02:23:16.036Z,5.57
2022-08-08T02:25:53.368Z,6.20
2022-08-08T02:28:36.338Z,7.97
2022-08-08T02:31:43.278Z,14.53
2022-08-08T02:34:15.072Z,5.17
2022-08-08T02:37:09.898Z,4.20
2022-08-08T02:40:05.770Z,3.53
2022-08-08T02:44:39.101Z,4.00
2022-08-08T02:46:38.487Z,3.80
2022-08-08T02:49:50.857Z,3.80
2022-08-08T02:52:50.235Z,3.50
2022-08-08T02:56:03.314Z,5.43
2022-08-08T02:59:26.143Z,9.23
2022-08-08T03:02:40.189Z,4.43
2022-08-08T03:05:56.131Z,3.90
2022-08-08T03:08:57.830Z,4.20
2022-08-08T03:12:13.844Z,3.63
2022-08-08T03:16:00.664Z,4.40
2022-08-08T03:18:06.660Z,4.33
2022-08-08T03:20:46.747Z,5.17
2022-08-08T03:23:21.351Z,4.13
2022-08-08T03:25:51.568Z,4.10
2022-08-08T03:28:22.889Z,4.43
2022-08-08T03:31:07.815Z,4.47
2022-08-08T03:33:55.355Z,4.07
2022-08-08T03:36:30.607Z,3.90
2022-08-08T03:39:14.816Z,4.00
2022-08-08T03:42:27.862Z,13.27
2022-08-08T03:44:35.402Z,11.47
2022-08-08T03:47:19.656Z,8.33
2022-08-08T03:50:00.464Z,6.67
2022-08-08T03:52:33.720Z,4.33
2022-08-08T03:55:20.019Z,4.27
2022-08-08T03:58:31.401Z,4.00
2022-08-08T04:01:01.551Z,4.83
2022-08-08T04:03:59.636Z,4.03
2022-08-08T04:06:29.317Z,4.13
2022-08-08T04:09:10.670Z,4.07
2022-08-08T04:11:59.190Z,4.40
2022-08-08T04:14:33.822Z,3.77
2022-08-08T04:17:07.136Z,3.60
2022-08-08T04:19:51.800Z,3.70
2022-08-08T04:22:24.227Z,3.30
2022-08-08T04:24:53.387Z,3.67
2022-08-08T04:28:02.065Z,3.50
2022-08-08T04:30:18.380Z,3.30
2022-08-08T04:32:50.508Z,4.00
2022-08-08T04:35:22.551Z,3.97
2022-08-08T04:37:52.054Z,3.57
2022-08-08T04:40:21.326Z,3.90
2022-08-08T04:42:57.970Z,3.67
2022-08-08T04:45:29.873Z,4.10
2022-08-08T04:48:00.492Z,3.47
2022-08-08T04:50:37.801Z,3.97
2022-08-08T04:53:14.318Z,3.40
2022-08-08T04:55:56.980Z,3.67
2022-08-08T04:58:27.089Z,3.50
2022-08-08T05:00:56.211Z,3.60
2022-08-08T05:04:10.457Z,3.33
2022-08-08T05:06:18.366Z,4.63
2022-08-08T05:08:54.615Z,3.17
2022-08-08T05:11:26.329Z,3.93
2022-08-08T05:14:00.741Z,3.30
2022-08-08T05:16:53.368Z,3.70
2022-08-08T05:20:12.593Z,3.60
2022-08-08T05:22:08.259Z,4.07
2022-08-08T05:24:37.625Z,5.53
2022-08-08T05:27:07.730Z,3.50
2022-08-08T05:29:37.940Z,4.20
2022-08-08T05:32:12.767Z,3.37
2022-08-08T05:34:44.178Z,4.10
2022-08-08T05:37:17.160Z,4.20
2022-08-08T05:39:52.908Z,4.73
2022-08-08T05:42:25.935Z,3.60
2022-08-08T05:45:00.342Z,3.77
2022-08-08T05:47:30.000Z,3.63
2022-08-08T05:50:19.514Z,3.50
2022-08-08T05:52:49.198Z,3.93
2022-08-08T05:55:17.835Z,3.60
2022-08-08T05:58:04.012Z,3.60
2022-08-08T06:00:36.755Z,3.90
2022-08-08T06:03:17.297Z,3.93
2022-08-08T06:05:56.643Z,4.10
2022-08-08T06:08:34.752Z,5.00
2022-08-08T06:11:04.996Z,4.10
2022-08-08T06:13:35.655Z,4.70
2022-08-08T06:16:14.103Z,4.40
2022-08-08T06:18:43.058Z,4.43
2022-08-08T06:21:28.536Z,5.17
2022-08-08T06:24:02.355Z,4.00
2022-08-08T06:26:45.287Z,3.50
2022-08-08T06:29:49.058Z,4.33
2022-08-08T06:32:18.458Z,4.90
2022-08-08T06:34:56.158Z,4.43
2022-08-08T06:37:40.268Z,4.30
2022-08-08T06:40:16.081Z,5.10
2022-08-08T06:42:54.051Z,4.60
2022-08-08T06:45:23.462Z,4.60
2022-08-08T06:48:01.410Z,4.47
2022-08-08T06:50:33.554Z,4.53
2022-08-08T06:53:13.776Z,4.47
2022-08-08T06:55:47.360Z,4.10
2022-08-08T06:58:30.318Z,3.90
2022-08-08T07:01:00.084Z,4.07
2022-08-08T07:03:52.073Z,3.87
2022-08-08T07:06:34.859Z,4.33
2022-08-08T07:09:15.330Z,4.20
2022-08-08T07:11:51.612Z,3.93
2022-08-08T07:14:26.654Z,4.40
2022-08-08T07:17:02.806Z,3.90
2022-08-08T07:19:44.550Z,4.87
2022-08-08T07:22:19.154Z,4.40
2022-08-08T07:24:53.615Z,4.20
2022-08-08T07:27:35.224Z,3.77
2022-08-08T07:30:19.691Z,4.03
2022-08-08T07:32:54.704Z,4.07
2022-08-08T07:35:30.876Z,4.20
2022-08-08T07:38:09.649Z,4.97
2022-08-08T07:40:40.046Z,4.33
2022-08-08T07:43:10.061Z,4.60
2022-08-08T07:46:05.606Z,4.83
2022-08-08T07:48:29.689Z,4.70
2022-08-08T07:51:02.578Z,5.53
2022-08-08T07:54:00.794Z,4.47
2022-08-08T07:56:36.143Z,4.40
2022-08-08T07:59:11.704Z,4.33
2022-08-08T08:02:34.635Z,4.97
2022-08-08T08:04:41.268Z,4.57
2022-08-08T08:07:11.934Z,5.50
2022-08-08T08:09:42.512Z,6.60
2022-08-08T08:12:31.684Z,9.80
2022-08-08T08:15:05.312Z,8.40
2022-08-08T08:17:44.152Z,6.43
2022-08-08T08:20:17.315Z,6.13
2022-08-08T08:22:47.619Z,5.33
2022-08-08T08:25:16.888Z,9.10
2022-08-08T08:27:47.837Z,5.70
2022-08-08T08:30:19.243Z,6.03
2022-08-08T08:32:49.498Z,4.60
2022-08-08T08:35:29.412Z,6.17
2022-08-08T08:38:18.037Z,5.23
2022-08-08T08:40:48.784Z,6.20
2022-08-08T08:43:20.507Z,9.63
2022-08-08T08:45:57.892Z,8.77
2022-08-08T08:48:26.469Z,6.20
2022-08-08T08:50:56.412Z,7.47
2022-08-08T08:53:54.594Z,5.87
2022-08-08T08:56:24.000Z,6.03
2022-08-08T08:58:53.627Z,6.13
2022-08-08T09:01:32.120Z,4.37
2022-08-08T09:04:05.715Z,5.20
2022-08-08T09:06:49.973Z,8.07
2022-08-08T09:09:35.591Z,8.63
2022-08-08T09:12:11.384Z,6.27
2022-08-08T09:14:42.498Z,7.17
2022-08-08T09:17:18.468Z,9.90
2022-08-08T09:22:01.798Z,7.33
2022-08-08T09:22:40.311Z,6.38
2022-08-08T09:25:11.299Z,7.83
2022-08-08T09:27:57.252Z,6.30
2022-08-08T09:30:29.750Z,5.70
2022-08-08T09:33:11.904Z,7.45
2022-08-08T09:35:51.170Z,5.13
2022-08-08T09:38:32.972Z,5.28
2022-08-08T09:41:06.733Z,5.57
2022-08-08T09:44:05.742Z,4.18
2022-08-08T09:46:36.447Z,4.50
2022-08-08T09:49:41.683Z,4.95
2022-08-08T09:52:07.001Z,9.50
2022-08-08T09:54:44.284Z,5.63
2022-08-08T09:57:25.219Z,3.97
2022-08-08T10:00:28.738Z,5.57
2022-08-08T10:02:44.837Z,5.63
2022-08-08T10:05:23.050Z,4.78
2022-08-08T10:08:01.349Z,4.30
2022-08-08T10:10:31.948Z,4.50
2022-08-08T10:13:06.052Z,4.40
2022-08-08T10:16:00.820Z,4.28
2022-08-08T10:18:31.801Z,4.20
2022-08-08T10:21:08.322Z,4.40
2022-08-08T10:23:55.518Z,4.15
2022-08-08T10:26:56.998Z,4.30
2022-08-08T10:29:25.153Z,4.82
2022-08-08T10:32:16.731Z,4.32
2022-08-08T10:34:58.570Z,4.30
2022-08-08T10:37:34.435Z,4.35
2022-08-08T10:40:16.807Z,4.15
2022-08-08T10:42:48.566Z,4.00
2022-08-08T10:45:18.725Z,3.90
2022-08-08T10:47:55.650Z,3.92
2022-08-08T10:50:32.685Z,3.90
2022-08-08T10:53:07.841Z,3.85
2022-08-08T10:55:46.826Z,3.80
2022-08-08T10:58:16.066Z,4.18
2022-08-08T11:00:54.374Z,3.63
2022-08-08T11:04:00.487Z,4.03
2022-08-08T11:06:34.311Z,4.95
2022-08-08T11:09:15.243Z,4.95
2022-08-08T11:12:06.190Z,4.35
2022-08-08T11:14:50.159Z,3.45
2022-08-08T11:18:00.963Z,3.30
2022-08-08T11:20:18.025Z,3.30
2022-08-08T11:22:51.857Z,3.30
2022-08-08T11:25:51.779Z,3.75
2022-08-08T11:28:15.263Z,3.08
2022-08-08T11:30:50.506Z,3.45
2022-08-08T11:33:52.366Z,3.90
2022-08-08T11:36:15.468Z,3.00
2022-08-08T11:38:54.595Z,3.47
2022-08-08T11:41:28.125Z,3.47
2022-08-08T11:44:05.632Z,3.42
2022-08-08T11:46:35.187Z,3.40
2022-08-08T11:49:11.361Z,3.13
2022-08-08T11:51:50.425Z,3.15
2022-08-08T11:54:33.509Z,2.80
2022-08-08T11:57:16.711Z,2.67
2022-08-08T12:00:00.524Z,2.78
2022-08-08T12:02:33.906Z,3.30
2022-08-08T12:05:06.764Z,3.33
2022-08-08T12:07:51.267Z,3.20
2022-08-08T12:10:21.727Z,3.00
2022-08-08T12:12:54.654Z,2.63
2022-08-08T12:15:28.933Z,4.28
2022-08-08T12:17:57.480Z,3.65
2022-08-08T12:20:40.230Z,7.60
2022-08-08T12:23:25.091Z,3.50
2022-08-08T12:25:57.668Z,2.70
2022-08-08T12:28:26.343Z,2.72
2022-08-08T12:30:57.615Z,2.65
2022-08-08T12:33:37.647Z,3.67
2022-08-08T12:36:17.164Z,4.32
2022-08-08T12:38:51.314Z,2.97
2022-08-08T12:41:33.740Z,2.65
2022-08-08T12:44:08.671Z,3.03
2022-08-08T12:46:38.011Z,2.88
2022-08-08T12:49:40.476Z,3.67
2022-08-08T12:52:00.996Z,3.20
2022-08-08T12:54:33.453Z,3.80
2022-08-08T12:57:17.112Z,3.10
2022-08-08T13:00:03.400Z,3.55
2022-08-08T13:02:35.844Z,2.72
2022-08-08T13:05:25.705Z,2.85
2022-08-08T13:08:04.208Z,2.63
2022-08-08T13:10:36.479Z,3.15
2022-08-08T13:13:34.783Z,4.85
2022-08-08T13:16:18.943Z,2.90
2022-08-08T13:18:56.911Z,3.15
2022-08-08T13:21:48.827Z,3.30
2022-08-08T13:24:18.384Z,2.97
2022-08-08T13:27:02.023Z,3.42
2022-08-08T13:29:37.891Z,2.80
2022-08-08T13:32:10.738Z,3.55
2022-08-08T13:34:40.791Z,3.45
2022-08-08T13:37:27.873Z,4.28
2022-08-08T13:40:05.810Z,3.05
2022-08-08T13:42:36.227Z,4.60
2022-08-08T13:45:05.080Z,6.97
2022-08-08T13:47:34.315Z,3.50
2022-08-08T13:50:37.624Z,3.20
2022-08-08T13:52:55.016Z,2.80
2022-08-08T13:55:29.686Z,2.67
2022-08-08T13:58:07.744Z,3.60
2022-08-08T14:00:42.400Z,4.00
2022-08-08T14:03:52.997Z,3.25
2022-08-08T14:06:33.709Z,3.00
2022-08-08T14:08:58.910Z,3.05
2022-08-08T14:11:32.463Z,3.15
2022-08-08T14:14:05.981Z,3.50
2022-08-08T14:16:37.606Z,3.13
2022-08-08T14:19:10.796Z,2.78
2022-08-08T14:21:48.855Z,3.10
2022-08-08T14:24:31.789Z,3.78
2022-08-08T14:27:07.365Z,3.00
2022-08-08T14:29:39.547Z,2.90
2022-08-08T14:32:17.156Z,3.03
2022-08-08T14:34:55.426Z,5.30
2022-08-08T14:37:28.207Z,4.97
2022-08-08T14:40:13.246Z,3.03
2022-08-08T14:42:55.030Z,3.10
2022-08-08T14:45:33.133Z,3.30
2022-08-08T14:48:16.373Z,3.10
2022-08-08T14:50:47.127Z,3.00
2022-08-08T14:53:16.550Z,3.42
2022-08-08T14:55:45.130Z,12.43
2022-08-08T14:58:19.653Z,4.82
2022-08-08T15:00:52.369Z,3.50
2022-08-08T15:03:22.983Z,3.33
2022-08-08T15:05:57.887Z,3.00
2022-08-08T15:08:34.391Z,3.42
2022-08-08T15:11:09.489Z,3.25
2022-08-08T15:14:02.992Z,3.20
2022-08-08T15:16:34.406Z,3.70
2022-08-08T15:19:04.731Z,3.42
2022-08-08T15:21:33.294Z,3.50
2022-08-08T15:24:02.002Z,3.30
2022-08-08T15:26:31.913Z,3.65
2022-08-08T15:29:02.040Z,3.50
2022-08-08T15:32:03.599Z,3.47
2022-08-08T15:34:31.441Z,3.13
2022-08-08T15:37:03.227Z,3.40
2022-08-08T15:39:38.044Z,3.60
2022-08-08T15:42:13.476Z,3.17
2022-08-08T15:44:48.297Z,3.35
2022-08-08T15:47:19.200Z,7.22
2022-08-08T15:49:50.832Z,10.65
2022-08-08T15:52:22.515Z,10.13
2022-08-08T15:54:53.526Z,6.00
2022-08-08T15:57:25.435Z,4.35
2022-08-08T16:00:05.945Z,3.72
2022-08-08T16:02:51.091Z,3.63
2022-08-08T16:05:23.471Z,4.03
2022-08-08T16:07:54.229Z,4.18
2022-08-08T16:13:11.185Z,3.60
2022-08-08T16:13:27.878Z,9.00
2022-08-08T16:16:12.759Z,10.52
2022-08-08T16:18:53.333Z,8.95
2022-08-08T16:21:31.767Z,5.35
2022-08-08T16:24:03.070Z,3.83
2022-08-08T16:26:35.018Z,4.03
2022-08-08T16:29:07.036Z,3.60
2022-08-08T16:31:44.660Z,4.55
2022-08-08T16:34:19.251Z,3.40
2022-08-08T16:36:50.271Z,3.35
2022-08-08T16:39:27.944Z,4.15
2022-08-08T16:42:17.673Z,3.53
2022-08-08T16:44:55.123Z,3.55
2022-08-08T16:47:40.746Z,3.80
2022-08-08T16:50:13.992Z,3.15
2022-08-08T16:55:19.334Z,3.80
2022-08-08T16:55:56.141Z,3.88
2022-08-08T16:58:25.399Z,3.70
2022-08-08T17:00:58.104Z,5.10
2022-08-08T17:03:59.804Z,4.17
2022-08-08T17:06:36.567Z,4.03
2022-08-08T17:09:07.005Z,3.70
2022-08-08T17:11:38.873Z,3.80
2022-08-08T17:14:17.906Z,3.90
2022-08-08T17:16:57.587Z,9.45
2022-08-08T17:19:29.643Z,9.43
2022-08-08T17:22:00.994Z,8.27
2022-08-08T17:24:30.720Z,5.80
2022-08-08T17:26:59.980Z,4.83
2022-08-08T17:29:28.615Z,4.40
2022-08-08T17:32:04.490Z,4.90
2022-08-08T17:34:59.913Z,5.37
2022-08-08T17:37:27.816Z,4.97
2022-08-08T17:40:10.924Z,4.37
2022-08-08T17:42:47.204Z,4.57
2022-08-08T17:45:23.143Z,10.00
2022-08-08T17:47:55.656Z,4.60
2022-08-08T17:50:27.321Z,4.27
2022-08-08T17:52:57.560Z,4.00
2022-08-08T17:56:06.191Z,3.60
2022-08-08T17:58:18.539Z,4.27
2022-08-08T18:00:56.157Z,4.73
2022-08-08T18:03:25.851Z,22.57
2022-08-08T18:05:56.026Z,25.37
2022-08-08T18:08:37.749Z,24.57
2022-08-08T18:11:14.907Z,16.77
2022-08-08T18:13:46.345Z,20.23
2022-08-08T18:16:17.005Z,25.73
2022-08-08T18:18:53.672Z,20.07
2022-08-08T18:21:59.436Z,14.10
2022-08-08T18:24:19.056Z,15.50
2022-08-08T18:26:54.868Z,16.57
2022-08-08T18:29:29.547Z,14.40
2022-08-08T18:31:59.590Z,13.40
2022-08-08T18:34:28.746Z,13.80
2022-08-08T18:36:58.707Z,13.00
2022-08-08T18:39:29.294Z,13.00
2022-08-08T18:42:01.088Z,14.20
2022-08-08T18:44:34.573Z,16.13
2022-08-08T18:47:05.211Z,20.07
2022-08-08T18:49:57.307Z,20.30
2022-08-08T18:52:24.175Z,13.77
2022-08-08T18:55:00.666Z,8.03
2022-08-08T18:57:40.982Z,8.30
2022-08-08T19:00:16.862Z,9.20
2022-08-08T19:02:57.184Z,5.63
2022-08-08T19:05:32.365Z,4.90
2022-08-08T19:08:25.405Z,5.97
2022-08-08T19:11:01.541Z,5.90
2022-08-08T19:13:53.314Z,6.83
2022-08-08T19:16:20.604Z,6.43
2022-08-08T19:18:59.991Z,4.70
2022-08-08T19:21:49.809Z,4.13
2022-08-08T19:24:39.270Z,11.17
2022-08-08T19:27:08.821Z,11.13
2022-08-08T19:29:45.754Z,8.97
2022-08-08T19:32:19.706Z,9.53
2022-08-08T19:34:51.762Z,9.63
2022-08-08T19:37:42.299Z,9.87
2022-08-08T19:40:14.738Z,9.40
2022-08-08T19:42:45.762Z,8.60
2022-08-08T19:45:58.742Z,5.80
2022-08-08T19:48:04.766Z,6.43
2022-08-08T19:50:36.538Z,5.83
2022-08-08T19:53:08.487Z,6.50
2022-08-08T19:55:56.618Z,4.83
2022-08-08T19:58:25.195Z,5.77
2022-08-08T20:00:57.779Z,4.47
2022-08-08T20:04:01.836Z,4.30
2022-08-08T20:06:18.768Z,4.30
2022-08-08T20:08:48.709Z,4.87
2022-08-08T20:11:21.863Z,4.90
2022-08-08T20:14:12.079Z,4.57
2022-08-08T20:16:40.693Z,4.00
2022-08-08T20:19:09.519Z,4.27
2022-08-08T20:21:38.687Z,4.27
2022-08-08T20:24:08.126Z,4.47
2022-08-08T20:26:38.427Z,4.27
2022-08-08T20:29:11.002Z,4.40
2022-08-08T20:32:02.463Z,3.90
2022-08-08T20:34:31.834Z,3.80
2022-08-08T20:37:02.546Z,4.07
2022-08-08T20:39:39.173Z,3.87
2022-08-08T20:42:23.762Z,4.93
2022-08-08T20:44:59.130Z,4.83
2022-08-08T20:47:35.844Z,4.13
2022-08-08T20:50:06.209Z,4.30
2022-08-08T20:52:38.907Z,4.67
2022-08-08T20:55:22.772Z,3.90
2022-08-08T20:57:57.977Z,5.30
2022-08-08T21:00:27.095Z,4.10
2022-08-08T21:02:55.948Z,4.77
2022-08-08T21:05:31.915Z,4.70
2022-08-08T21:08:37.305Z,4.67
2022-08-08T21:10:50.412Z,3.97
2022-08-08T21:13:23.356Z,5.10
2022-08-08T21:16:17.946Z,4.20
2022-08-08T21:18:49.072Z,4.13
2022-08-08T21:21:20.541Z,3.87
2022-08-08T21:24:18.117Z,4.20
2022-08-08T21:26:55.669Z,5.00
2022-08-08T21:30:04.455Z,4.00
2022-08-08T21:32:24.906Z,4.40
2022-08-08T21:34:56.874Z,5.20
2022-08-08T21:37:53.706Z,3.70
2022-08-08T21:40:31.082Z,7.10
2022-08-08T21:43:00.171Z,7.00
2022-08-08T21:47:59.432Z,6.83
2022-08-08T21:48:31.670Z,12.27
2022-08-08T21:51:10.397Z,18.43
2022-08-08T21:54:35.831Z,13.00
2022-08-08T21:56:36.050Z,14.20
2022-08-08T21:59:10.910Z,8.10
2022-08-08T22:01:52.423Z,6.10
2022-08-08T22:04:25.844Z,11.83
2022-08-08T22:06:54.656Z,9.53
2022-08-08T22:09:26.863Z,7.67
2022-08-08T22:12:08.920Z,11.60
2022-08-08T22:14:38.225Z,10.67
2022-08-08T22:17:12.778Z,7.23
2022-08-08T22:20:12.009Z,8.57
2022-08-08T22:22:37.917Z,7.07
2022-08-08T22:25:19.739Z,3.97
2022-08-08T22:28:02.526Z,3.63
2022-08-08T22:30:33.886Z,4.33
2022-08-08T22:33:08.984Z,3.53
2022-08-08T22:36:04.982Z,3.50
2022-08-08T22:38:48.516Z,3.30
2022-08-08T22:41:21.038Z,3.47
2022-08-08T22:44:01.917Z,6.30
2022-08-08T22:46:33.070Z,4.30
2022-08-08T22:49:03.595Z,3.40
2022-08-08T22:51:42.778Z,5.23
2022-08-08T22:54:32.370Z,4.63
2022-08-08T22:57:11.359Z,7.37
2022-08-08T22:59:48.587Z,4.40
2022-08-08T23:02:29.160Z,9.23
2022-08-08T23:05:04.740Z,6.87
2022-08-08T23:07:51.447Z,6.87
2022-08-08T23:10:25.400Z,7.37
2022-08-08T23:12:56.028Z,8.13
2022-08-08T23:16:39.817Z,6.67
2022-08-08T23:18:14.032Z,8.27
2022-08-08T23:20:44.938Z,5.50
2022-08-08T23:23:23.194Z,4.90
2022-08-08T23:25:51.825Z,6.03
2022-08-08T23:28:20.352Z,3.83
2022-08-08T23:30:49.271Z,5.27
2022-08-08T23:33:35.749Z,7.97
2022-08-08T23:36:09.291Z,11.23
2022-08-08T23:38:43.933Z,9.83
2022-08-08T23:41:23.283Z,6.47
2022-08-08T23:43:56.434Z,4.63
2022-08-08T23:49:08.547Z,4.13
2022-08-08T23:49:18.954Z,4.30
2022-08-08T23:52:05.860Z,4.27
2022-08-08T23:54:42.664Z,3.83
2022-08-08T23:57:26.409Z,6.03
